sensor_id;sensor_type;location;lat;lon;timestamp;pressure;altitude;pressure_sealevel;temperature;humidity
67013;BME280;53926;47.406;19.188;2023-02-22T00:00:13;100293.12;;;7.44;100.00
67013;BME280;53926;47.406;19.188;2023-02-22T00:03:02;100293.88;;;7.38;100.00
67013;BME280;53926;47.406;19.188;2023-02-22T00:05:29;100300.41;;;7.12;100.00
67013;BME280;53926;47.406;19.188;2023-02-22T00:07:56;100305.53;;;7.06;100.00
67013;BME280;53926;47.406;19.188;2023-02-22T00:10:24;100295.91;;;7.00;100.00
67013;BME280;53926;47.406;19.188;2023-02-22T00:12:53;100297.81;;;6.91;100.00
67013;BME280;53926;47.406;19.188;2023-02-22T00:15:22;100310.59;;;6.77;100.00
67013;BME280;53926;47.406;19.188;2023-02-22T00:17:55;100305.03;;;6.44;100.00
67013;BME280;53926;47.406;19.188;2023-02-22T00:20:22;100321.06;;;6.09;100.00
67013;BME280;53926;47.406;19.188;2023-02-22T00:22:50;100314.03;;;6.18;100.00
67013;BME280;53926;47.406;19.188;2023-02-22T00:25:19;100317.06;;;6.52;100.00
67013;BME280;53926;47.406;19.188;2023-02-22T00:27:50;100307.81;;;6.42;100.00
67013;BME280;53926;47.406;19.188;2023-02-22T00:30:23;100306.47;;;6.32;100.00
67013;BME280;53926;47.406;19.188;2023-02-22T00:32:53;100320.03;;;6.04;100.00
67013;BME280;53926;47.406;19.188;2023-02-22T00:35:27;100319.16;;;5.88;100.00
67013;BME280;53926;47.406;19.188;2023-02-22T00:37:56;100317.19;;;5.90;100.00
67013;BME280;53926;47.406;19.188;2023-02-22T00:40:27;100326.53;;;5.77;100.00
67013;BME280;53926;47.406;19.188;2023-02-22T00:42:57;100330.16;;;5.67;100.00
67013;BME280;53926;47.406;19.188;2023-02-22T00:45:26;100325.06;;;5.59;100.00
67013;BME280;53926;47.406;19.188;2023-02-22T00:47:53;100329.38;;;5.82;100.00
67013;BME280;53926;47.406;19.188;2023-02-22T00:50:21;100324.56;;;5.79;100.00
67013;BME280;53926;47.406;19.188;2023-02-22T00:52:51;100327.81;;;5.58;100.00
67013;BME280;53926;47.406;19.188;2023-02-22T00:55:21;100322.78;;;5.41;100.00
67013;BME280;53926;47.406;19.188;2023-02-22T00:57:48;100329.25;;;5.14;100.00
67013;BME280;53926;47.406;19.188;2023-02-22T01:00:22;100327.59;;;4.90;100.00
67013;BME280;53926;47.406;19.188;2023-02-22T01:02:49;100325.22;;;4.80;100.00
67013;BME280;53926;47.406;19.188;2023-02-22T01:05:19;100330.94;;;4.59;100.00
67013;BME280;53926;47.406;19.188;2023-02-22T01:07:47;100323.72;;;4.54;100.00
67013;BME280;53926;47.406;19.188;2023-02-22T01:10:17;100324.41;;;4.40;100.00
67013;BME280;53926;47.406;19.188;2023-02-22T01:12:48;100321.87;;;4.32;100.00
67013;BME280;53926;47.406;19.188;2023-02-22T01:15:18;100323.69;;;4.06;100.00
67013;BME280;53926;47.406;19.188;2023-02-22T01:17:52;100318.75;;;3.88;100.00
67013;BME280;53926;47.406;19.188;2023-02-22T01:20:20;100318.59;;;3.57;100.00
67013;BME280;53926;47.406;19.188;2023-02-22T01:22:49;100312.66;;;3.48;100.00
67013;BME280;53926;47.406;19.188;2023-02-22T01:25:19;100313.75;;;3.46;100.00
67013;BME280;53926;47.406;19.188;2023-02-22T01:27:46;100315.84;;;3.34;100.00
67013;BME280;53926;47.406;19.188;2023-02-22T01:30:13;100310.84;;;3.24;100.00
67013;BME280;53926;47.406;19.188;2023-02-22T01:32:41;100323.88;;;3.22;100.00
67013;BME280;53926;47.406;19.188;2023-02-22T01:35:16;100319.03;;;3.28;100.00
67013;BME280;53926;47.406;19.188;2023-02-22T01:37:44;100311.97;;;3.46;100.00
67013;BME280;53926;47.406;19.188;2023-02-22T01:40:18;100313.41;;;3.24;100.00
67013;BME280;53926;47.406;19.188;2023-02-22T01:42:55;100312.94;;;3.29;100.00
67013;BME280;53926;47.406;19.188;2023-02-22T01:48:07;100314.69;;;3.12;100.00
67013;BME280;53926;47.406;19.188;2023-02-22T01:50:39;100309.72;;;3.35;100.00
67013;BME280;53926;47.406;19.188;2023-02-22T01:53:10;100308.75;;;3.11;100.00
67013;BME280;53926;47.406;19.188;2023-02-22T01:55:39;100309.56;;;3.28;100.00
67013;BME280;53926;47.406;19.188;2023-02-22T01:58:07;100319.19;;;3.18;100.00
67013;BME280;53926;47.406;19.188;2023-02-22T02:00:34;100314.38;;;3.15;100.00
67013;BME280;53926;47.406;19.188;2023-02-22T02:03:07;100310.06;;;3.24;100.00
67013;BME280;53926;47.406;19.188;2023-02-22T02:05:36;100311.47;;;3.10;100.00
67013;BME280;53926;47.406;19.188;2023-02-22T02:08:34;100311.13;;;3.04;100.00
67013;BME280;53926;47.406;19.188;2023-02-22T02:11:06;100312.91;;;3.12;100.00
67013;BME280;53926;47.406;19.188;2023-02-22T02:13:35;100306.97;;;3.03;100.00
67013;BME280;53926;47.406;19.188;2023-02-22T02:16:01;100313.84;;;2.86;100.00
67013;BME280;53926;47.406;19.188;2023-02-22T02:18:28;100311.28;;;3.03;100.00
67013;BME280;53926;47.406;19.188;2023-02-22T02:23:43;100313.75;;;3.37;100.00
67013;BME280;53926;47.406;19.188;2023-02-22T02:29:29;100310.50;;;3.85;100.00
67013;BME280;53926;47.406;19.188;2023-02-22T02:32:19;100309.06;;;3.90;100.00
67013;BME280;53926;47.406;19.188;2023-02-22T02:35:03;100307.63;;;3.88;100.00
67013;BME280;53926;47.406;19.188;2023-02-22T02:37:35;100307.44;;;3.89;100.00
67013;BME280;53926;47.406;19.188;2023-02-22T02:40:24;100309.88;;;3.99;100.00
67013;BME280;53926;47.406;19.188;2023-02-22T02:43:20;100305.34;;;4.01;100.00
67013;BME280;53926;47.406;19.188;2023-02-22T02:46:06;100303.41;;;4.03;100.00
67013;BME280;53926;47.406;19.188;2023-02-22T02:48:38;100295.84;;;4.02;100.00
67013;BME280;53926;47.406;19.188;2023-02-22T02:51:08;100297.66;;;3.93;100.00
67013;BME280;53926;47.406;19.188;2023-02-22T02:53:41;100303.12;;;3.73;100.00
67013;BME280;53926;47.406;19.188;2023-02-22T02:56:10;100302.66;;;3.53;100.00
67013;BME280;53926;47.406;19.188;2023-02-22T02:58:49;100311.34;;;3.52;100.00
67013;BME280;53926;47.406;19.188;2023-02-22T03:09:38;100311.53;;;2.75;100.00
67013;BME280;53926;47.406;19.188;2023-02-22T03:14:44;100321.44;;;2.62;100.00
67013;BME280;53926;47.406;19.188;2023-02-22T03:18:03;100316.44;;;2.60;100.00
67013;BME280;53926;47.406;19.188;2023-02-22T03:20:20;100315.63;;;2.52;100.00
67013;BME280;53926;47.406;19.188;2023-02-22T03:22:54;100313.53;;;2.47;100.00
67013;BME280;53926;47.406;19.188;2023-02-22T03:25:38;100312.06;;;2.44;100.00
67013;BME280;53926;47.406;19.188;2023-02-22T03:28:10;100310.59;;;2.42;100.00
67013;BME280;53926;47.406;19.188;2023-02-22T03:33:10;100319.44;;;2.39;100.00
67013;BME280;53926;47.406;19.188;2023-02-22T03:35:44;100317.03;;;2.46;100.00
67013;BME280;53926;47.406;19.188;2023-02-22T03:38:15;100319.91;;;2.43;100.00
67013;BME280;53926;47.406;19.188;2023-02-22T03:40:48;100317.22;;;2.53;100.00
67013;BME280;53926;47.406;19.188;2023-02-22T03:43:21;100315.25;;;2.46;100.00
67013;BME280;53926;47.406;19.188;2023-02-22T03:45:51;100315.69;;;2.33;100.00
67013;BME280;53926;47.406;19.188;2023-02-22T03:48:24;100318.13;;;2.35;100.00
67013;BME280;53926;47.406;19.188;2023-02-22T03:50:52;100316.09;;;2.47;100.00
67013;BME280;53926;47.406;19.188;2023-02-22T03:53:20;100313.53;;;2.47;100.00
67013;BME280;53926;47.406;19.188;2023-02-22T03:55:49;100321.31;;;2.72;100.00
67013;BME280;53926;47.406;19.188;2023-02-22T03:58:19;100324.84;;;2.71;100.00
67013;BME280;53926;47.406;19.188;2023-02-22T04:00:48;100330.03;;;2.79;100.00
67013;BME280;53926;47.406;19.188;2023-02-22T04:03:22;100330.22;;;2.94;100.00
67013;BME280;53926;47.406;19.188;2023-02-22T04:05:49;100328.84;;;3.16;100.00
67013;BME280;53926;47.406;19.188;2023-02-22T04:08:16;100328.53;;;3.27;100.00
67013;BME280;53926;47.406;19.188;2023-02-22T04:10:44;100332.09;;;3.43;100.00
67013;BME280;53926;47.406;19.188;2023-02-22T04:13:11;100329.53;;;3.59;100.00
67013;BME280;53926;47.406;19.188;2023-02-22T04:15:40;100334.22;;;3.64;100.00
67013;BME280;53926;47.406;19.188;2023-02-22T04:18:06;100338.22;;;3.74;100.00
67013;BME280;53926;47.406;19.188;2023-02-22T04:20:33;100331.78;;;3.70;100.00
67013;BME280;53926;47.406;19.188;2023-02-22T04:23:00;100332.75;;;3.69;100.00
67013;BME280;53926;47.406;19.188;2023-02-22T04:25:27;100333.25;;;3.73;100.00
67013;BME280;53926;47.406;19.188;2023-02-22T04:27:53;100324.87;;;3.63;100.00
67013;BME280;53926;47.406;19.188;2023-02-22T04:30:20;100326.16;;;3.50;100.00
67013;BME280;53926;47.406;19.188;2023-02-22T04:32:47;100323.59;;;3.42;100.00
67013;BME280;53926;47.406;19.188;2023-02-22T04:35:14;100331.91;;;3.28;100.00
67013;BME280;53926;47.406;19.188;2023-02-22T04:37:41;100326.28;;;3.16;100.00
67013;BME280;53926;47.406;19.188;2023-02-22T04:40:08;100320.62;;;2.96;100.00
67013;BME280;53926;47.406;19.188;2023-02-22T04:42:37;100327.34;;;2.89;100.00
67013;BME280;53926;47.406;19.188;2023-02-22T04:45:06;100327.56;;;2.61;100.00
67013;BME280;53926;47.406;19.188;2023-02-22T04:47:34;100326.88;;;2.59;100.00
67013;BME280;53926;47.406;19.188;2023-02-22T04:50:01;100331.53;;;2.55;100.00
67013;BME280;53926;47.406;19.188;2023-02-22T04:52:28;100332.59;;;2.36;100.00
67013;BME280;53926;47.406;19.188;2023-02-22T04:54:55;100339.91;;;2.31;100.00
67013;BME280;53926;47.406;19.188;2023-02-22T04:57:21;100340.00;;;2.13;100.00
67013;BME280;53926;47.406;19.188;2023-02-22T04:59:48;100335.47;;;2.07;100.00
67013;BME280;53926;47.406;19.188;2023-02-22T05:02:17;100339.91;;;2.05;100.00
67013;BME280;53926;47.406;19.188;2023-02-22T05:04:44;100330.31;;;1.81;100.00
67013;BME280;53926;47.406;19.188;2023-02-22T05:07:11;100338.84;;;1.89;100.00
67013;BME280;53926;47.406;19.188;2023-02-22T05:09:40;100333.72;;;1.89;100.00
67013;BME280;53926;47.406;19.188;2023-02-22T05:12:07;100336.78;;;1.67;100.00
67013;BME280;53926;47.406;19.188;2023-02-22T05:14:34;100340.03;;;1.77;100.00
67013;BME280;53926;47.406;19.188;2023-02-22T05:17:01;100333.47;;;1.74;100.00
67013;BME280;53926;47.406;19.188;2023-02-22T05:19:28;100343.28;;;1.79;100.00
67013;BME280;53926;47.406;19.188;2023-02-22T05:21:57;100350.16;;;1.78;100.00
67013;BME280;53926;47.406;19.188;2023-02-22T05:24:24;100342.25;;;1.72;100.00
67013;BME280;53926;47.406;19.188;2023-02-22T05:26:50;100340.97;;;2.20;100.00
67013;BME280;53926;47.406;19.188;2023-02-22T05:29:21;100342.03;;;2.09;100.00
67013;BME280;53926;47.406;19.188;2023-02-22T05:31:48;100340.91;;;2.04;100.00
67013;BME280;53926;47.406;19.188;2023-02-22T05:34:15;100349.25;;;2.06;100.00
67013;BME280;53926;47.406;19.188;2023-02-22T05:36:45;100351.78;;;2.24;100.00
67013;BME280;53926;47.406;19.188;2023-02-22T05:39:11;100354.34;;;1.98;100.00
67013;BME280;53926;47.406;19.188;2023-02-22T05:41:38;100365.56;;;1.96;100.00
67013;BME280;53926;47.406;19.188;2023-02-22T05:44:07;100365.25;;;2.00;100.00
67013;BME280;53926;47.406;19.188;2023-02-22T05:46:34;100369.53;;;2.17;100.00
67013;BME280;53926;47.406;19.188;2023-02-22T05:49:00;100372.34;;;1.79;100.00
67013;BME280;53926;47.406;19.188;2023-02-22T05:51:27;100363.44;;;1.74;100.00
67013;BME280;53926;47.406;19.188;2023-02-22T05:53:54;100366.88;;;2.01;100.00
67013;BME280;53926;47.406;19.188;2023-02-22T05:56:26;100378.25;;;1.98;100.00
67013;BME280;53926;47.406;19.188;2023-02-22T05:58:53;100383.34;;;1.90;100.00
67013;BME280;53926;47.406;19.188;2023-02-22T06:01:20;100380.47;;;1.75;100.00
67013;BME280;53926;47.406;19.188;2023-02-22T06:03:48;100390.88;;;1.91;100.00
67013;BME280;53926;47.406;19.188;2023-02-22T06:06:16;100391.19;;;1.70;100.00
67013;BME280;53926;47.406;19.188;2023-02-22T06:08:45;100406.59;;;1.88;100.00
67013;BME280;53926;47.406;19.188;2023-02-22T06:11:12;100393.37;;;2.01;100.00
67013;BME280;53926;47.406;19.188;2023-02-22T06:13:39;100401.06;;;1.83;100.00
67013;BME280;53926;47.406;19.188;2023-02-22T06:16:06;100400.19;;;2.10;100.00
67013;BME280;53926;47.406;19.188;2023-02-22T06:18:33;100406.50;;;2.16;100.00
67013;BME280;53926;47.406;19.188;2023-02-22T06:21:00;100413.03;;;2.10;100.00
67013;BME280;53926;47.406;19.188;2023-02-22T06:23:27;100424.19;;;2.19;100.00
67013;BME280;53926;47.406;19.188;2023-02-22T06:25:53;100429.97;;;2.21;100.00
67013;BME280;53926;47.406;19.188;2023-02-22T06:28:20;100430.97;;;2.28;100.00
67013;BME280;53926;47.406;19.188;2023-02-22T06:30:49;100421.69;;;2.36;100.00
67013;BME280;53926;47.406;19.188;2023-02-22T06:33:18;100436.28;;;2.53;100.00
67013;BME280;53926;47.406;19.188;2023-02-22T06:35:44;100432.28;;;2.59;100.00
67013;BME280;53926;47.406;19.188;2023-02-22T06:38:20;100427.66;;;2.62;100.00
67013;BME280;53926;47.406;19.188;2023-02-22T06:40:46;100431.31;;;2.86;100.00
67013;BME280;53926;47.406;19.188;2023-02-22T06:43:13;100431.72;;;2.99;100.00
67013;BME280;53926;47.406;19.188;2023-02-22T06:45:40;100437.25;;;3.21;100.00
67013;BME280;53926;47.406;19.188;2023-02-22T06:48:06;100433.22;;;3.18;100.00
67013;BME280;53926;47.406;19.188;2023-02-22T06:50:34;100440.19;;;3.34;100.00
67013;BME280;53926;47.406;19.188;2023-02-22T06:53:02;100442.16;;;3.49;100.00
67013;BME280;53926;47.406;19.188;2023-02-22T06:55:32;100435.59;;;3.63;100.00
67013;BME280;53926;47.406;19.188;2023-02-22T06:57:59;100439.47;;;3.75;100.00
67013;BME280;53926;47.406;19.188;2023-02-22T07:00:28;100434.81;;;3.95;100.00
67013;BME280;53926;47.406;19.188;2023-02-22T07:02:56;100436.75;;;4.18;100.00
67013;BME280;53926;47.406;19.188;2023-02-22T07:05:24;100434.81;;;4.36;100.00
67013;BME280;53926;47.406;19.188;2023-02-22T07:07:53;100433.03;;;4.53;100.00
67013;BME280;53926;47.406;19.188;2023-02-22T07:10:28;100439.47;;;5.05;100.00
67013;BME280;53926;47.406;19.188;2023-02-22T07:12:56;100430.00;;;5.29;100.00
67013;BME280;53926;47.406;19.188;2023-02-22T07:15:25;100433.84;;;5.87;100.00
67013;BME280;53926;47.406;19.188;2023-02-22T07:17:53;100431.53;;;6.16;100.00
67013;BME280;53926;47.406;19.188;2023-02-22T07:20:21;100431.41;;;6.32;100.00
67013;BME280;53926;47.406;19.188;2023-02-22T07:22:49;100421.84;;;6.33;100.00
67013;BME280;53926;47.406;19.188;2023-02-22T07:25:17;100429.75;;;6.69;100.00
67013;BME280;53926;47.406;19.188;2023-02-22T07:27:45;100421.94;;;7.14;100.00
67013;BME280;53926;47.406;19.188;2023-02-22T07:30:27;100425.66;;;7.26;100.00
67013;BME280;53926;47.406;19.188;2023-02-22T07:32:58;100420.88;;;7.45;100.00
67013;BME280;53926;47.406;19.188;2023-02-22T07:35:28;100425.84;;;7.61;100.00
67013;BME280;53926;47.406;19.188;2023-02-22T07:37:56;100428.72;;;7.51;100.00
67013;BME280;53926;47.406;19.188;2023-02-22T07:40:26;100421.38;;;7.98;100.00
67013;BME280;53926;47.406;19.188;2023-02-22T07:42:58;100429.44;;;9.08;100.00
67013;BME280;53926;47.406;19.188;2023-02-22T07:45:29;100429.00;;;9.93;100.00
67013;BME280;53926;47.406;19.188;2023-02-22T07:47:56;100436.25;;;10.45;100.00
67013;BME280;53926;47.406;19.188;2023-02-22T07:50:25;100425.62;;;10.40;100.00
67013;BME280;53926;47.406;19.188;2023-02-22T07:52:54;100424.81;;;9.79;100.00
67013;BME280;53926;47.406;19.188;2023-02-22T07:55:24;100427.44;;;10.12;100.00
67013;BME280;53926;47.406;19.188;2023-02-22T07:57:54;100428.84;;;10.01;100.00
67013;BME280;53926;47.406;19.188;2023-02-22T08:02:50;100425.81;;;11.10;100.00
67013;BME280;53926;47.406;19.188;2023-02-22T08:05:17;100421.16;;;12.14;94.09
67013;BME280;53926;47.406;19.188;2023-02-22T08:07:44;100421.09;;;12.95;87.06
67013;BME280;53926;47.406;19.188;2023-02-22T08:10:14;100430.19;;;13.84;81.69
67013;BME280;53926;47.406;19.188;2023-02-22T08:12:42;100431.62;;;13.68;80.50
67013;BME280;53926;47.406;19.188;2023-02-22T08:15:32;100431.28;;;13.64;80.65
67013;BME280;53926;47.406;19.188;2023-02-22T08:18:04;100434.38;;;14.79;74.62
67013;BME280;53926;47.406;19.188;2023-02-22T08:20:31;100434.66;;;15.52;71.01
67013;BME280;53926;47.406;19.188;2023-02-22T08:22:57;100435.56;;;16.09;68.50
67013;BME280;53926;47.406;19.188;2023-02-22T08:25:30;100441.22;;;14.57;69.80
67013;BME280;53926;47.406;19.188;2023-02-22T08:28:03;100438.84;;;14.31;72.43
67013;BME280;53926;47.406;19.188;2023-02-22T08:30:31;100450.22;;;12.99;79.61
67013;BME280;53926;47.406;19.188;2023-02-22T08:32:58;100448.59;;;12.42;81.62
67013;BME280;53926;47.406;19.188;2023-02-22T08:35:30;100449.34;;;12.49;80.07
67013;BME280;53926;47.406;19.188;2023-02-22T08:38:00;100460.84;;;11.21;87.48
67013;BME280;53926;47.406;19.188;2023-02-22T08:40:30;100459.97;;;10.88;93.02
67013;BME280;53926;47.406;19.188;2023-02-22T08:42:57;100455.78;;;11.33;88.54
67013;BME280;53926;47.406;19.188;2023-02-22T08:45:24;100462.47;;;10.57;93.05
67013;BME280;53926;47.406;19.188;2023-02-22T08:47:51;100464.03;;;10.71;93.32
67013;BME280;53926;47.406;19.188;2023-02-22T08:50:26;100451.81;;;10.78;92.35
67013;BME280;53926;47.406;19.188;2023-02-22T08:52:54;100456.66;;;10.48;93.66
67013;BME280;53926;47.406;19.188;2023-02-22T08:55:22;100447.66;;;11.54;88.58
67013;BME280;53926;47.406;19.188;2023-02-22T08:57:51;100453.09;;;11.78;86.37
67013;BME280;53926;47.406;19.188;2023-02-22T09:00:19;100461.78;;;12.29;82.03
67013;BME280;53926;47.406;19.188;2023-02-22T09:02:46;100465.53;;;12.58;80.29
67013;BME280;53926;47.406;19.188;2023-02-22T09:05:13;100465.88;;;12.18;81.57
67013;BME280;53926;47.406;19.188;2023-02-22T09:07:43;100459.12;;;12.10;80.56
67013;BME280;53926;47.406;19.188;2023-02-22T09:10:16;100459.38;;;11.70;82.55
67013;BME280;53926;47.406;19.188;2023-02-22T09:12:43;100459.22;;;11.65;84.65
67013;BME280;53926;47.406;19.188;2023-02-22T09:15:13;100464.59;;;11.70;83.78
67013;BME280;53926;47.406;19.188;2023-02-22T09:17:41;100459.81;;;12.49;81.77
67013;BME280;53926;47.406;19.188;2023-02-22T09:20:08;100458.00;;;12.25;81.81
67013;BME280;53926;47.406;19.188;2023-02-22T09:22:37;100449.84;;;12.95;78.69
67013;BME280;53926;47.406;19.188;2023-02-22T09:25:05;100451.53;;;12.90;79.06
67013;BME280;53926;47.406;19.188;2023-02-22T09:27:42;100451.88;;;12.56;78.47
67013;BME280;53926;47.406;19.188;2023-02-22T09:30:35;100448.31;;;13.24;77.62
67013;BME280;53926;47.406;19.188;2023-02-22T09:33:07;100446.72;;;13.05;76.99
67013;BME280;53926;47.406;19.188;2023-02-22T09:35:36;100449.81;;;12.83;79.39
67013;BME280;53926;47.406;19.188;2023-02-22T09:38:08;100442.00;;;12.95;78.02
67013;BME280;53926;47.406;19.188;2023-02-22T09:40:39;100445.78;;;12.62;80.28
67013;BME280;53926;47.406;19.188;2023-02-22T09:48:55;100446.41;;;13.62;75.12
67013;BME280;53926;47.406;19.188;2023-02-22T09:51:27;100453.91;;;13.58;75.29
67013;BME280;53926;47.406;19.188;2023-02-22T09:53:59;100443.16;;;13.90;73.55
67013;BME280;53926;47.406;19.188;2023-02-22T09:56:27;100445.31;;;13.39;73.95
67013;BME280;53926;47.406;19.188;2023-02-22T09:58:58;100448.28;;;13.85;72.00
67013;BME280;53926;47.406;19.188;2023-02-22T10:01:46;100447.03;;;14.59;70.81
67013;BME280;53926;47.406;19.188;2023-02-22T10:07:16;100449.81;;;13.51;73.79
67013;BME280;53926;47.406;19.188;2023-02-22T10:09:47;100440.22;;;12.77;78.40
67013;BME280;53926;47.406;19.188;2023-02-22T10:23:27;100425.19;;;14.18;72.04
67013;BME280;53926;47.406;19.188;2023-02-22T10:26:16;100432.94;;;14.48;69.99
67013;BME280;53926;47.406;19.188;2023-02-22T10:29:00;100427.13;;;14.10;71.88
67013;BME280;53926;47.406;19.188;2023-02-22T10:31:31;100421.66;;;14.00;71.01
67013;BME280;53926;47.406;19.188;2023-02-22T10:34:01;100419.16;;;14.17;71.35
67013;BME280;53926;47.406;19.188;2023-02-22T10:36:29;100418.72;;;14.20;72.04
67013;BME280;53926;47.406;19.188;2023-02-22T10:39:16;100414.94;;;14.16;71.12
67013;BME280;53926;47.406;19.188;2023-02-22T10:41:50;100415.75;;;13.93;71.21
67013;BME280;53926;47.406;19.188;2023-02-22T10:44:19;100417.34;;;12.91;76.03
67013;BME280;53926;47.406;19.188;2023-02-22T10:46:46;100411.16;;;12.85;75.40
67013;BME280;53926;47.406;19.188;2023-02-22T10:49:22;100407.88;;;13.09;76.08
67013;BME280;53926;47.406;19.188;2023-02-22T10:51:59;100410.09;;;12.38;79.19
67013;BME280;53926;47.406;19.188;2023-02-22T10:54:38;100410.94;;;13.66;74.39
67013;BME280;53926;47.406;19.188;2023-02-22T10:57:06;100403.59;;;14.87;70.16
67013;BME280;53926;47.406;19.188;2023-02-22T10:59:36;100398.03;;;13.53;72.79
67013;BME280;53926;47.406;19.188;2023-02-22T11:02:07;100394.81;;;14.05;69.52
67013;BME280;53926;47.406;19.188;2023-02-22T11:04:52;100399.06;;;13.52;72.33
67013;BME280;53926;47.406;19.188;2023-02-22T11:09:58;100389.81;;;13.37;73.75
67013;BME280;53926;47.406;19.188;2023-02-22T11:12:31;100387.13;;;13.56;75.18
67013;BME280;53926;47.406;19.188;2023-02-22T11:17:50;100386.34;;;12.95;75.55
67013;BME280;53926;47.406;19.188;2023-02-22T11:20:25;100385.63;;;12.69;77.14
67013;BME280;53926;47.406;19.188;2023-02-22T11:22:54;100380.44;;;13.30;74.73
67013;BME280;53926;47.406;19.188;2023-02-22T11:25:26;100378.03;;;13.58;72.11
67013;BME280;53926;47.406;19.188;2023-02-22T11:27:53;100381.59;;;13.03;75.94
67013;BME280;53926;47.406;19.188;2023-02-22T11:32:57;100376.56;;;12.53;77.33
67013;BME280;53926;47.406;19.188;2023-02-22T11:38:21;100380.88;;;12.96;75.26
67013;BME280;53926;47.406;19.188;2023-02-22T11:43:47;100377.59;;;13.01;74.96
67013;BME280;53926;47.406;19.188;2023-02-22T11:46:25;100382.75;;;13.38;71.36
67013;BME280;53926;47.406;19.188;2023-02-22T11:49:07;100392.81;;;13.53;71.06
67013;BME280;53926;47.406;19.188;2023-02-22T11:54:46;100385.34;;;14.16;68.26
67013;BME280;53926;47.406;19.188;2023-02-22T12:00:18;100379.16;;;14.34;67.07
67013;BME280;53926;47.406;19.188;2023-02-22T12:12:02;100369.94;;;15.12;64.29
67013;BME280;53926;47.406;19.188;2023-02-22T12:14:36;100358.44;;;14.84;64.32
67013;BME280;53926;47.406;19.188;2023-02-22T12:20:08;100363.84;;;15.07;65.25
67013;BME280;53926;47.406;19.188;2023-02-22T12:22:52;100368.63;;;15.27;63.38
67013;BME280;53926;47.406;19.188;2023-02-22T12:25:24;100370.84;;;14.60;66.78
67013;BME280;53926;47.406;19.188;2023-02-22T12:27:58;100368.28;;;14.77;65.73
67013;BME280;53926;47.406;19.188;2023-02-22T12:30:29;100363.59;;;15.08;64.16
67013;BME280;53926;47.406;19.188;2023-02-22T12:33:05;100364.44;;;14.68;67.90
67013;BME280;53926;47.406;19.188;2023-02-22T12:35:40;100357.41;;;14.45;67.71
67013;BME280;53926;47.406;19.188;2023-02-22T12:38:24;100353.88;;;14.39;68.17
67013;BME280;53926;47.406;19.188;2023-02-22T12:41:08;100352.50;;;14.37;67.70
67013;BME280;53926;47.406;19.188;2023-02-22T12:43:43;100356.25;;;14.53;67.22
67013;BME280;53926;47.406;19.188;2023-02-22T12:56:58;100343.97;;;14.41;68.96
67013;BME280;53926;47.406;19.188;2023-02-22T13:00:14;100339.81;;;13.93;70.76
67013;BME280;53926;47.406;19.188;2023-02-22T13:02:55;100335.91;;;14.31;68.62
67013;BME280;53926;47.406;19.188;2023-02-22T13:05:23;100333.78;;;14.04;70.78
67013;BME280;53926;47.406;19.188;2023-02-22T13:09:00;100332.28;;;14.08;71.33
67013;BME280;53926;47.406;19.188;2023-02-22T13:13:45;100328.31;;;13.47;73.38
67013;BME280;53926;47.406;19.188;2023-02-22T13:16:45;100331.94;;;13.34;73.42
67013;BME280;53926;47.406;19.188;2023-02-22T13:19:28;100323.78;;;13.54;74.80
67013;BME280;53926;47.406;19.188;2023-02-22T13:22:04;100325.25;;;13.62;72.62
67013;BME280;53926;47.406;19.188;2023-02-22T13:27:40;100336.38;;;13.45;73.53
67013;BME280;53926;47.406;19.188;2023-02-22T13:30:17;100328.19;;;13.89;71.69
67013;BME280;53926;47.406;19.188;2023-02-22T13:35:34;100332.84;;;14.34;69.27
67013;BME280;53926;47.406;19.188;2023-02-22T13:38:41;100331.59;;;14.01;70.59
67013;BME280;53926;47.406;19.188;2023-02-22T13:49:55;100332.97;;;13.45;73.53
67013;BME280;53926;47.406;19.188;2023-02-22T13:52:28;100336.72;;;13.49;73.03
67013;BME280;53926;47.406;19.188;2023-02-22T13:55:01;100331.97;;;13.69;72.06
67013;BME280;53926;47.406;19.188;2023-02-22T13:57:34;100322.88;;;13.60;74.23
67013;BME280;53926;47.406;19.188;2023-02-22T14:13:09;100313.97;;;13.61;72.24
67013;BME280;53926;47.406;19.188;2023-02-22T14:18:25;100319.53;;;13.41;73.48
67013;BME280;53926;47.406;19.188;2023-02-22T14:21:14;100314.63;;;13.33;73.74
67013;BME280;53926;47.406;19.188;2023-02-22T14:23:44;100317.63;;;13.18;75.79
67013;BME280;53926;47.406;19.188;2023-02-22T14:28:56;100316.72;;;13.12;77.05
67013;BME280;53926;47.406;19.188;2023-02-22T14:31:30;100315.22;;;13.04;78.64
67013;BME280;53926;47.406;19.188;2023-02-22T14:34:13;100317.53;;;13.13;78.84
67013;BME280;53926;47.406;19.188;2023-02-22T14:39:34;100323.06;;;13.04;78.85
67013;BME280;53926;47.406;19.188;2023-02-22T14:42:17;100313.97;;;13.07;78.89
67013;BME280;53926;47.406;19.188;2023-02-22T14:48:11;100313.44;;;12.56;82.40
67013;BME280;53926;47.406;19.188;2023-02-22T14:51:03;100318.50;;;12.69;80.61
67013;BME280;53926;47.406;19.188;2023-02-22T14:54:02;100313.25;;;12.39;82.44
67013;BME280;53926;47.406;19.188;2023-02-22T15:02:18;100312.59;;;12.44;82.73
67013;BME280;53926;47.406;19.188;2023-02-22T15:04:52;100311.06;;;12.55;83.06
67013;BME280;53926;47.406;19.188;2023-02-22T15:07:26;100310.97;;;12.61;82.90
67013;BME280;53926;47.406;19.188;2023-02-22T15:10:24;100314.91;;;12.52;82.87
67013;BME280;53926;47.406;19.188;2023-02-22T15:12:57;100309.19;;;12.43;83.79
67013;BME280;53926;47.406;19.188;2023-02-22T15:15:38;100310.56;;;12.27;85.20
67013;BME280;53926;47.406;19.188;2023-02-22T15:20:44;100309.84;;;12.20;85.09